Time;durP1;ratioP1;P1;durP2;ratioP2;P2;SDS_P1;SDS_P2;PMS_P1;PMS_P2;Temp;Humidity;BMP_temperature;BMP_pressure;BME280_temperature;BME280_humidity;BME280_pressure;Samples;Min_cycle;Max_cycle;Signal;HPM_P1;HPM_P2
2022/06/04 00:02:15;;;;;;;5.90;5.30;;;;;;;12.41;61.45;100518.88;130207;1270;108991;-80
2022/06/04 00:05:23;;;;;;;6.30;5.40;;;;;;;12.37;61.40;100515.66;130109;1270;108708;-78
2022/06/04 00:08:30;;;;;;;6.70;5.50;;;;;;;12.31;61.53;100505.42;130125;1270;108765;-79
2022/06/04 00:18:28;;;;;;;6.70;4.80;;;;;;;12.21;61.76;100508.04;130129;1270;108632;-79
2022/06/04 00:21:33;;;;;;;5.90;4.60;;;;;;;12.22;61.99;100504.95;130054;1271;108447;-79
2022/06/04 00:24:38;;;;;;;5.80;5.10;;;;;;;12.24;62.05;100506.17;130112;1270;108723;-79
2022/06/04 00:27:44;;;;;;;6.10;5.50;;;;;;;12.25;62.06;100506.39;130144;1270;108861;-79
2022/06/04 00:30:50;;;;;;;5.80;5.30;;;;;;;12.27;62.07;100502.85;130154;1270;109686;-79
2022/06/04 00:33:56;;;;;;;6.30;5.40;;;;;;;12.28;62.12;100500.54;130073;1270;108772;-78
2022/06/04 00:37:01;;;;;;;6.80;5.60;;;;;;;12.30;62.06;100497.30;130061;1270;108778;-78
2022/06/04 00:40:14;;;;;;;6.30;5.50;;;;;;;12.29;62.20;100497.38;130254;1270;108971;-78
2022/06/04 00:43:21;;;;;;;7.00;5.20;;;;;;;12.27;62.37;100491.41;130361;1270;108710;-79
2022/06/04 00:47:09;;;;;;;6.50;5.60;;;;;;;12.22;62.49;100492.59;130359;1270;108728;-79
2022/06/04 00:50:17;;;;;;;7.30;6.50;;;;;;;12.16;62.46;100482.26;130110;1270;108614;-78
2022/06/04 00:53:23;;;;;;;6.40;5.50;;;;;;;12.15;62.71;100484.86;130258;1270;107885;-79
2022/06/04 00:56:38;;;;;;;7.20;5.80;;;;;;;12.13;62.88;100482.64;130103;1270;108684;-79
2022/06/04 00:59:55;;;;;;;6.20;5.30;;;;;;;12.11;62.90;100477.85;129939;1270;245158;-78
2022/06/04 01:03:16;;;;;;;6.30;5.60;;;;;;;12.11;62.70;100467.71;130167;1270;108913;-81
2022/06/04 01:06:44;;;;;;;5.70;5.10;;;;;;;12.13;62.96;100468.69;130142;1270;108889;-78
2022/06/04 01:10:10;;;;;;;5.70;5.10;;;;;;;12.15;63.02;100471.86;130304;1270;108710;-81
2022/06/04 01:13:34;;;;;;;6.20;5.30;;;;;;;12.16;63.11;100475.94;130443;1270;106428;-83
2022/06/04 01:16:46;;;;;;;6.10;5.30;;;;;;;12.19;62.96;100476.45;130199;1270;108651;-82
2022/06/04 01:20:10;;;;;;;6.10;5.30;;;;;;;12.19;63.02;100472.60;130381;1270;108729;-82
2022/06/04 01:23:57;;;;;;;7.50;5.60;;;;;;;12.17;63.20;100469.02;130245;1270;108644;-82
2022/06/04 01:27:25;;;;;;;6.90;5.40;;;;;;;12.10;63.27;100460.09;130171;1270;108906;-83
2022/06/04 01:30:36;;;;;;;6.30;5.50;;;;;;;12.07;63.51;100459.54;130184;1270;108871;-81
2022/06/04 01:33:46;;;;;;;8.00;5.60;;;;;;;12.03;63.57;100452.08;130194;1270;108682;-80
2022/06/04 01:36:59;;;;;;;6.30;4.90;;;;;;;11.98;63.39;100451.86;130213;1270;108923;-81
2022/06/04 01:43:34;;;;;;;4.90;4.40;;;;;;;11.88;63.64;100442.39;130224;1270;108797;-81
2022/06/04 01:46:45;;;;;;;5.00;4.40;;;;;;;11.88;63.64;100435.27;130033;1271;108921;-77
2022/06/04 01:49:52;;;;;;;6.00;5.20;;;;;;;11.89;63.64;100433.52;130359;1270;107168;-79
2022/06/04 01:53:02;;;;;;;7.10;5.30;;;;;;;11.87;63.42;100432.66;130807;1270;107674;-79
2022/06/04 01:56:14;;;;;;;6.50;5.40;;;;;;;11.85;63.55;100435.96;130415;1270;108796;-80
2022/06/04 01:59:26;;;;;;;6.40;5.80;;;;;;;11.83;63.66;100440.92;130377;1270;108839;-79
2022/06/04 02:02:36;;;;;;;6.50;5.60;;;;;;;11.81;63.84;100437.27;130199;1270;108723;-81
2022/06/04 02:05:47;;;;;;;7.20;5.80;;;;;;;11.80;63.87;100429.27;130224;1270;108810;-77
2022/06/04 02:08:56;;;;;;;6.60;5.60;;;;;;;11.78;64.04;100424.25;130041;1270;108889;-76
2022/06/04 02:12:05;;;;;;;6.60;5.70;;;;;;;11.77;63.97;100425.45;130029;1270;108852;-76
2022/06/04 02:15:15;;;;;;;6.50;5.80;;;;;;;11.77;63.76;100416.26;130008;1270;108782;-77
2022/06/04 02:18:20;;;;;;;7.30;5.90;;;;;;;11.77;63.97;100405.89;130053;1270;108858;-75
2022/06/04 02:21:27;;;;;;;6.40;5.70;;;;;;;11.75;63.92;100404.65;130239;1270;108743;-76
2022/06/04 02:24:32;;;;;;;6.90;5.30;;;;;;;11.74;64.24;100402.27;130191;1270;108759;-77
2022/06/04 02:27:38;;;;;;;6.00;5.40;;;;;;;11.76;64.63;100407.02;130113;1271;109645;-77
2022/06/04 02:30:55;;;;;;;6.60;5.40;;;;;;;11.80;64.27;100404.34;130081;1270;108837;-77
2022/06/04 02:34:09;;;;;;;6.50;5.90;;;;;;;11.85;64.57;100404.54;130052;1270;107947;-79
2022/06/04 02:37:21;;;;;;;6.90;6.20;;;;;;;11.92;64.64;100400.83;130154;1270;108892;-76
2022/06/04 02:40:31;;;;;;;8.00;7.00;;;;;;;11.96;64.32;100400.23;130082;1270;108799;-75
2022/06/04 02:43:44;;;;;;;6.80;6.20;;;;;;;11.97;64.58;100403.90;130048;1270;109049;-76
2022/06/04 02:46:57;;;;;;;7.80;7.00;;;;;;;12.00;64.56;100408.90;130057;1270;108939;-75
2022/06/04 02:50:09;;;;;;;8.70;7.50;;;;;;;12.04;64.92;100406.52;130081;1270;108854;-76
2022/06/04 02:53:17;;;;;;;8.20;7.30;;;;;;;12.06;64.72;100402.17;130109;1270;108162;-76
2022/06/04 02:56:26;;;;;;;8.00;7.20;;;;;;;12.09;64.75;100399.06;130113;1271;108749;-82
2022/06/04 02:59:34;;;;;;;7.50;6.60;;;;;;;12.11;64.66;100390.11;130286;1270;108992;-81
2022/06/04 03:02:40;;;;;;;6.80;6.10;;;;;;;12.16;64.87;100380.80;130255;1270;108382;-81
2022/06/04 03:05:55;;;;;;;8.10;6.60;;;;;;;12.24;65.02;100380.60;130303;1270;108739;-78
2022/06/04 03:09:01;;;;;;;8.90;6.40;;;;;;;12.34;64.89;100373.05;130223;1270;108833;-78
2022/06/04 03:12:09;;;;;;;7.70;6.90;;;;;;;12.44;65.04;100375.13;130320;1270;107621;-78
2022/06/04 03:15:15;;;;;;;8.20;7.30;;;;;;;12.52;65.02;100380.13;130563;1270;108730;-80
2022/06/04 03:18:21;;;;;;;8.40;7.50;;;;;;;12.57;65.12;100383.50;130185;1270;108646;-79
2022/06/04 03:21:28;;;;;;;9.40;8.40;;;;;;;12.61;65.16;100386.82;130099;1270;109507;-77
2022/06/04 03:24:33;;;;;;;10.90;8.90;;;;;;;12.66;65.29;100384.70;130056;1270;107516;-77
2022/06/04 03:27:38;;;;;;;9.70;8.70;;;;;;;12.72;65.43;100379.39;130054;1270;108713;-77
2022/06/04 03:30:43;;;;;;;11.90;10.50;;;;;;;12.79;65.40;100378.52;130061;1270;107669;-77
2022/06/04 03:33:49;;;;;;;12.00;10.00;;;;;;;12.81;65.67;100382.95;130085;1270;109078;-80
2022/06/04 03:36:54;;;;;;;11.00;9.40;;;;;;;12.81;65.74;100381.68;130109;1270;108664;-79
2022/06/04 03:40:00;;;;;;;11.50;9.30;;;;;;;12.88;65.85;100381.50;130180;1271;108820;-79
2022/06/04 03:43:05;;;;;;;11.80;9.50;;;;;;;12.98;66.01;100377.73;129987;1271;108658;-79
2022/06/04 03:46:10;;;;;;;11.70;10.30;;;;;;;13.11;65.95;100374.86;130218;1270;108948;-79
2022/06/04 03:49:15;;;;;;;11.20;9.70;;;;;;;13.25;65.92;100376.27;130130;1270;108880;-79
2022/06/04 03:52:21;;;;;;;11.30;10.10;;;;;;;13.35;65.91;100370.30;130279;1268;107512;-78
2022/06/04 03:55:27;;;;;;;10.90;9.70;;;;;;;13.42;65.89;100361.92;130174;1270;108974;-77
2022/06/04 03:58:32;;;;;;;11.00;9.50;;;;;;;13.51;66.07;100356.24;130112;1270;108997;-78
2022/06/04 04:01:37;;;;;;;10.50;9.40;;;;;;;13.60;66.07;100358.50;130273;1271;107902;-78
2022/06/04 04:04:42;;;;;;;11.80;10.60;;;;;;;13.65;66.30;100367.72;130134;1270;107605;-80
2022/06/04 04:07:48;;;;;;;10.60;8.90;;;;;;;13.69;66.26;100365.73;130111;1270;108643;-79
2022/06/04 04:10:54;;;;;;;9.70;8.70;;;;;;;13.72;66.50;100367.70;130058;1270;108688;-80
2022/06/04 04:13:59;;;;;;;10.10;8.80;;;;;;;13.80;66.75;100371.84;130106;1270;108790;-77
2022/06/04 04:17:05;;;;;;;11.20;10.00;;;;;;;13.91;66.88;100362.89;130095;1270;108794;-77
2022/06/04 04:20:14;;;;;;;10.80;9.70;;;;;;;14.04;66.83;100362.52;130065;1270;108919;-77
2022/06/04 04:23:20;;;;;;;9.70;8.70;;;;;;;14.16;66.88;100360.80;130098;1270;109152;-78
2022/06/04 04:26:25;;;;;;;10.10;9.10;;;;;;;14.26;66.91;100354.66;130079;1270;108964;-78
2022/06/04 04:29:30;;;;;;;10.80;9.40;;;;;;;14.36;66.93;100349.58;130092;1271;108985;-78
2022/06/04 04:32:36;;;;;;;11.40;9.70;;;;;;;14.51;66.99;100347.85;130141;1271;107725;-78
2022/06/04 04:35:41;;;;;;;10.40;9.10;;;;;;;14.68;67.20;100349.90;130067;1270;108672;-79
2022/06/04 04:38:47;;;;;;;9.10;8.00;;;;;;;14.83;67.48;100346.77;130170;1270;108715;-78
2022/06/04 04:41:52;;;;;;;10.50;9.40;;;;;;;14.99;67.34;100347.23;130180;1270;108653;-80
2022/06/04 04:44:57;;;;;;;9.90;8.90;;;;;;;15.18;67.10;100349.23;130121;1270;108811;-78
2022/06/04 04:48:03;;;;;;;10.60;9.40;;;;;;;15.38;67.30;100345.26;130117;1271;108805;-79
2022/06/04 04:51:12;;;;;;;10.90;9.80;;;;;;;15.57;67.32;100342.52;130223;1271;108931;-82
2022/06/04 04:54:18;;;;;;;11.00;9.60;;;;;;;15.79;67.56;100341.38;130218;1271;108555;-81
2022/06/04 04:57:23;;;;;;;10.30;9.20;;;;;;;16.01;67.10;100342.02;130162;1271;108755;-80
2022/06/04 05:00:29;;;;;;;12.10;9.40;;;;;;;16.18;67.09;100338.55;130272;1270;108830;-78
2022/06/04 05:03:35;;;;;;;10.30;9.10;;;;;;;16.36;67.30;100335.30;130247;1270;108630;-75
2022/06/04 05:06:40;;;;;;;10.20;9.20;;;;;;;16.52;67.04;100333.90;130291;1270;108515;-78
2022/06/04 05:09:46;;;;;;;9.30;8.30;;;;;;;16.65;66.90;100334.38;130351;1271;108666;-78
2022/06/04 05:12:54;;;;;;;9.10;8.10;;;;;;;16.81;66.77;100337.90;130200;1270;108753;-75
2022/06/04 05:15:59;;;;;;;9.80;8.80;;;;;;;16.95;66.33;100340.60;130181;1271;108885;-77
2022/06/04 05:19:05;;;;;;;10.30;9.30;;;;;;;17.11;66.44;100348.05;130180;1271;108909;-79
2022/06/04 05:22:10;;;;;;;10.70;9.60;;;;;;;17.32;66.40;100345.77;130188;1270;108897;-78
2022/06/04 05:25:16;;;;;;;10.30;9.30;;;;;;;17.51;66.04;100339.25;130138;1271;107551;-78
2022/06/04 05:28:21;;;;;;;10.00;9.00;;;;;;;17.69;65.90;100335.84;130132;1271;108662;-75
2022/06/04 05:31:26;;;;;;;10.90;9.70;;;;;;;17.83;66.04;100336.39;130173;1271;108680;-76
2022/06/04 05:34:32;;;;;;;11.40;9.90;;;;;;;17.91;65.61;100338.09;130169;1271;108595;-75
2022/06/04 05:37:38;;;;;;;10.90;9.80;;;;;;;17.99;65.27;100350.17;130196;1269;108651;-77
2022/06/04 05:40:43;;;;;;;9.80;8.80;;;;;;;18.05;65.02;100352.31;130240;1271;108654;-77
2022/06/04 05:43:48;;;;;;;10.50;9.40;;;;;;;18.14;64.97;100355.68;130154;1269;108720;-77
2022/06/04 05:46:53;;;;;;;9.70;8.80;;;;;;;18.20;64.81;100358.96;130207;1270;107868;-77
2022/06/04 05:49:58;;;;;;;10.60;9.60;;;;;;;18.29;64.88;100357.50;130050;1271;108975;-77
2022/06/04 05:53:03;;;;;;;11.20;10.00;;;;;;;18.35;64.65;100362.77;130084;1270;109289;-79
2022/06/04 05:56:14;;;;;;;10.80;9.80;;;;;;;18.45;64.59;100361.97;130037;1270;109122;-79
2022/06/04 05:59:22;;;;;;;10.60;9.60;;;;;;;18.58;64.48;100361.02;130119;1270;108674;-79
2022/06/04 06:02:27;;;;;;;11.30;10.30;;;;;;;18.70;64.34;100362.72;130032;1270;109047;-79
2022/06/04 06:05:32;;;;;;;12.10;10.10;;;;;;;18.79;64.10;100363.33;130239;1270;108798;-78
2022/06/04 06:08:37;;;;;;;10.30;9.30;;;;;;;18.87;64.05;100364.48;130076;1271;109033;-77
2022/06/04 06:11:45;;;;;;;10.60;9.60;;;;;;;18.95;63.98;100367.55;130235;1270;108749;-77
2022/06/04 06:14:50;;;;;;;9.30;8.40;;;;;;;19.03;63.78;100371.67;130208;1270;108768;-77
2022/06/04 06:17:55;;;;;;;9.80;8.70;;;;;;;19.10;63.65;100369.17;130218;1270;108857;-79
2022/06/04 06:21:00;;;;;;;10.20;9.30;;;;;;;19.18;63.61;100370.39;130116;1270;108665;-80
2022/06/04 06:24:09;;;;;;;9.50;8.70;;;;;;;19.32;63.82;100369.79;130241;1270;107685;-79
2022/06/04 06:27:14;;;;;;;9.20;8.10;;;;;;;19.49;63.60;100368.41;130215;1270;107679;-78
2022/06/04 06:30:20;;;;;;;9.80;8.70;;;;;;;19.59;63.37;100364.61;130284;1270;108627;-81
2022/06/04 06:33:25;;;;;;;9.10;8.30;;;;;;;19.67;63.24;100363.81;130250;1270;106904;-78
2022/06/04 06:36:31;;;;;;;9.10;8.20;;;;;;;19.79;63.25;100362.13;130435;1271;108667;-78
2022/06/04 06:39:36;;;;;;;10.00;9.00;;;;;;;19.96;62.97;100361.05;130255;1271;108462;-78
2022/06/04 06:42:41;;;;;;;10.00;9.10;;;;;;;20.14;62.86;100363.77;130195;1269;108136;-77
2022/06/04 06:45:47;;;;;;;10.80;9.70;;;;;;;20.34;62.74;100366.21;130201;1271;107714;-78
2022/06/04 06:48:57;;;;;;;13.10;11.80;;;;;;;20.54;62.63;100369.72;130188;1270;108808;-77
2022/06/04 06:52:04;;;;;;;9.60;8.70;;;;;;;20.72;62.26;100371.58;130285;1271;108840;-77
2022/06/04 06:55:11;;;;;;;8.30;7.60;;;;;;;20.83;61.64;100367.45;130052;1270;108783;-78
2022/06/04 06:58:16;;;;;;;8.90;8.00;;;;;;;20.97;61.50;100367.67;130150;1270;108676;-77
2022/06/04 07:01:24;;;;;;;8.10;7.30;;;;;;;21.10;61.37;100367.31;130230;1271;108937;-80
2022/06/04 07:04:30;;;;;;;7.90;7.00;;;;;;;21.23;61.06;100370.77;130442;1270;108897;-79
2022/06/04 07:07:35;;;;;;;9.10;8.20;;;;;;;21.32;60.83;100376.17;130087;1270;108780;-79
2022/06/04 07:10:40;;;;;;;8.90;8.00;;;;;;;21.40;60.46;100375.45;130192;1270;108667;-81
2022/06/04 07:13:46;;;;;;;8.70;8.00;;;;;;;21.44;60.54;100377.52;130253;1270;108828;-77
2022/06/04 07:16:52;;;;;;;8.80;7.60;;;;;;;21.48;60.20;100375.48;130214;1271;108719;-76
2022/06/04 07:19:57;;;;;;;8.80;8.00;;;;;;;21.46;59.78;100375.05;130243;1271;108690;-79
2022/06/04 07:23:02;;;;;;;8.90;8.10;;;;;;;21.40;59.55;100379.05;130120;1271;108718;-81
2022/06/04 07:26:08;;;;;;;10.20;9.00;;;;;;;21.30;59.90;100380.02;130288;1271;108863;-81
2022/06/04 07:29:14;;;;;;;8.70;7.80;;;;;;;21.20;59.40;100378.23;130269;1271;108794;-80
2022/06/04 07:32:19;;;;;;;8.80;8.10;;;;;;;21.16;59.93;100379.92;130271;1271;108820;-81
2022/06/04 07:35:25;;;;;;;9.20;8.30;;;;;;;21.21;60.02;100378.59;130226;1271;108907;-81
2022/06/04 07:38:30;;;;;;;10.20;9.20;;;;;;;21.15;59.67;100380.61;130205;1270;108838;-82
2022/06/04 07:41:39;;;;;;;11.10;10.00;;;;;;;20.90;59.39;100374.39;130144;1271;108915;-81
2022/06/04 07:44:44;;;;;;;10.10;9.10;;;;;;;20.62;59.84;100382.03;130242;1271;108798;-80
2022/06/04 07:47:49;;;;;;;11.20;10.10;;;;;;;20.45;60.13;100375.80;130206;1271;109858;-82
2022/06/04 07:50:55;;;;;;;11.80;10.40;;;;;;;20.30;60.36;100375.91;130365;1271;108735;-83
2022/06/04 07:54:00;;;;;;;11.30;9.80;;;;;;;20.21;60.53;100378.71;130223;1271;106882;-78
2022/06/04 07:57:06;;;;;;;10.60;8.90;;;;;;;20.12;60.64;100379.67;130237;1270;108792;-79
2022/06/04 08:00:13;;;;;;;10.10;9.10;;;;;;;20.02;60.87;100380.52;130047;1271;107770;-79
2022/06/04 08:03:18;;;;;;;9.10;8.20;;;;;;;19.91;61.08;100378.72;130075;1271;107672;-78
2022/06/04 08:06:24;;;;;;;9.20;8.40;;;;;;;19.89;61.15;100377.10;130159;1271;107439;-80
2022/06/04 08:09:30;;;;;;;9.50;8.60;;;;;;;19.88;61.17;100379.39;130164;1271;109018;-78
2022/06/04 08:12:35;;;;;;;10.50;9.30;;;;;;;19.85;61.36;100382.69;130120;1271;108800;-81
2022/06/04 08:15:42;;;;;;;16.10;10.40;;;;;;;19.77;61.44;100382.57;130283;1271;108711;-86
2022/06/04 08:18:48;;;;;;;11.30;10.00;;;;;;;19.62;61.37;100380.73;130311;1271;109640;-83
2022/06/04 08:21:54;;;;;;;9.60;8.60;;;;;;;19.49;61.60;100384.32;130236;1270;109080;-83
2022/06/04 08:24:59;;;;;;;9.50;8.50;;;;;;;19.41;61.97;100388.80;130159;1271;108923;-84
2022/06/04 08:28:05;;;;;;;9.10;8.00;;;;;;;19.33;62.26;100392.23;130257;1271;107618;-81
2022/06/04 08:31:13;;;;;;;7.70;6.90;;;;;;;19.25;62.50;100399.91;130132;1271;109181;-81
2022/06/04 08:34:18;;;;;;;6.90;6.40;;;;;;;19.19;62.91;100396.00;130236;1271;108686;-79
2022/06/04 08:37:23;;;;;;;7.10;6.40;;;;;;;19.16;63.17;100402.66;130089;1270;108888;-79
2022/06/04 08:40:34;;;;;;;7.70;6.90;;;;;;;19.13;63.72;100409.88;130063;1271;108833;-82
2022/06/04 08:43:49;;;;;;;8.70;7.80;;;;;;;19.08;64.18;100418.61;130129;1271;108712;-80
2022/06/04 08:47:00;;;;;;;7.70;6.90;;;;;;;19.03;64.50;100417.61;130745;1271;108674;-78
2022/06/04 08:50:14;;;;;;;8.60;7.80;;;;;;;18.99;64.89;100419.71;130205;1271;108906;-79
2022/06/04 08:53:24;;;;;;;7.80;7.00;;;;;;;18.93;65.08;100420.98;130129;1271;108531;-78
2022/06/04 09:00:05;;;;;;;8.70;7.90;;;;;;;18.84;65.62;100425.05;130187;1271;108701;-75
2022/06/04 09:03:16;;;;;;;10.00;9.00;;;;;;;18.81;65.75;100426.20;130202;1270;108699;-78
2022/06/04 09:06:32;;;;;;;10.00;8.70;;;;;;;18.79;66.21;100423.71;130217;1271;108735;-79
2022/06/04 09:09:43;;;;;;;10.30;9.30;;;;;;;18.80;66.46;100422.66;130261;1271;108812;-77
2022/06/04 09:12:55;;;;;;;10.10;9.10;;;;;;;18.81;66.69;100414.23;130271;1271;109194;-79
2022/06/04 09:16:03;;;;;;;;;;;;;;;18.81;67.04;100412.85;130151;1271;107720;-79
2022/06/04 09:19:15;;;;;;;9.80;8.80;;;;;;;18.84;67.20;100411.95;130243;1271;108906;-78
2022/06/04 09:22:24;;;;;;;10.00;9.10;;;;;;;18.91;67.31;100412.75;130449;1271;108838;-78
2022/06/04 09:25:38;;;;;;;11.00;10.00;;;;;;;19.01;67.59;100420.13;130283;1271;108882;-76
2022/06/04 09:28:59;;;;;;;13.10;11.80;;;;;;;19.10;67.69;100422.54;130129;1271;108812;-78
2022/06/04 09:32:12;;;;;;;12.70;11.40;;;;;;;19.16;67.84;100430.58;130106;1271;109003;-82
2022/06/04 09:35:22;;;;;;;12.80;11.50;;;;;;;19.16;67.90;100423.13;130136;1271;109238;-78
2022/06/04 09:38:31;;;;;;;13.60;12.30;;;;;;;19.17;68.12;100413.84;130107;1271;108730;-75
2022/06/04 09:41:36;;;;;;;13.40;12.10;;;;;;;19.19;68.30;100409.98;130145;1271;108731;-77
2022/06/04 09:44:52;;;;;;;14.40;13.00;;;;;;;19.20;68.38;100405.41;130007;1271;108804;-78
2022/06/04 09:48:00;;;;;;;13.30;12.20;;;;;;;19.26;68.49;100402.50;130319;1271;109030;-78
2022/06/04 09:51:14;;;;;;;14.60;13.20;;;;;;;19.30;68.52;100406.59;130214;1271;107471;-76
2022/06/04 09:54:25;;;;;;;14.80;13.30;;;;;;;19.31;68.64;100408.33;129966;1271;107742;-76
2022/06/04 09:57:35;;;;;;;15.40;13.70;;;;;;;19.35;68.44;100412.91;130113;1271;108781;-77
2022/06/04 10:00:41;;;;;;;12.70;11.40;;;;;;;19.37;68.32;100415.83;130027;1271;108715;-82
2022/06/04 10:04:00;;;;;;;10.90;9.80;;;;;;;19.37;68.52;100420.56;129988;1271;108685;-76
2022/06/04 10:07:11;;;;;;;13.60;12.30;;;;;;;19.42;68.70;100426.96;130137;1271;108647;-76
2022/06/04 10:10:25;;;;;;;14.70;13.30;;;;;;;19.38;69.15;100427.54;130079;1271;108868;-76
2022/06/04 10:13:47;;;;;;;14.60;12.70;;;;;;;19.32;69.47;100425.77;130114;1271;108759;-77
2022/06/04 10:16:52;;;;;;;13.90;12.50;;;;;;;19.24;69.68;100429.30;130015;1271;109192;-76
2022/06/04 10:19:57;;;;;;;14.00;12.60;;;;;;;19.24;69.73;100425.73;129970;1271;108632;-76
2022/06/04 10:23:06;;;;;;;15.20;13.70;;;;;;;19.31;69.88;100423.86;129931;1271;108929;-76
2022/06/04 10:26:29;;;;;;;15.40;13.90;;;;;;;19.34;70.81;100427.81;129987;1271;108779;-76
2022/06/04 10:30:04;;;;;;;17.00;15.10;;;;;;;19.29;70.72;100428.80;129960;1271;109511;-76
2022/06/04 10:33:22;;;;;;;16.80;15.10;;;;;;;19.32;71.22;100430.60;130006;1271;108707;-76
2022/06/04 10:36:47;;;;;;;16.50;14.90;;;;;;;19.37;70.86;100430.81;129929;1271;108844;-77
2022/06/04 10:40:02;;;;;;;16.90;15.40;;;;;;;19.51;70.87;100422.83;130098;1271;108797;-77
2022/06/04 10:43:30;;;;;;;16.60;14.90;;;;;;;19.59;70.82;100424.45;130201;1271;108151;-77
2022/06/04 10:46:44;;;;;;;15.40;13.80;;;;;;;19.71;70.42;100414.36;130119;1271;108760;-78
2022/06/04 10:50:13;;;;;;;15.90;14.40;;;;;;;19.95;70.60;100413.91;130173;1271;108576;-78
2022/06/04 10:53:27;;;;;;;17.20;15.50;;;;;;;20.24;70.15;100405.98;130085;1271;108742;-80
2022/06/04 10:56:40;;;;;;;18.70;17.10;;;;;;;20.47;69.97;100401.52;130127;1271;108706;-79
2022/06/04 10:59:49;;;;;;;17.10;15.50;;;;;;;20.62;69.97;100392.80;130054;1269;108625;-79
2022/06/04 11:03:01;;;;;;;21.80;19.80;;;;;;;20.72;69.61;100386.33;130191;1271;109431;-78
2022/06/04 11:06:13;;;;;;;16.80;15.20;;;;;;;20.84;68.59;100381.18;130192;1271;109015;-78
2022/06/04 11:09:18;;;;;;;;;;;;;;;20.93;68.36;100383.34;130250;1270;108740;-78
2022/06/04 11:12:34;;;;;;;19.60;17.90;;;;;;;20.92;68.17;100382.77;130541;1271;107731;-78
2022/06/04 11:15:43;;;;;;;21.40;19.40;;;;;;;20.91;68.46;100382.35;130265;1271;107145;-78
2022/06/04 11:18:56;;;;;;;17.90;16.10;;;;;;;20.90;68.47;100384.48;130243;1269;108762;-78
2022/06/04 11:22:09;;;;;;;18.00;16.20;;;;;;;20.81;68.38;100391.49;130299;1271;108612;-80
2022/06/04 11:25:24;;;;;;;18.20;16.50;;;;;;;20.73;68.59;100394.25;130287;1270;107829;-78
2022/06/04 11:28:30;;;;;;;15.60;14.20;;;;;;;20.75;68.89;100390.14;130141;1271;108023;-78
2022/06/04 11:31:58;;;;;;;13.40;12.20;;;;;;;20.97;69.16;100384.60;130057;1271;107775;-75
2022/06/04 11:35:23;;;;;;;16.00;14.40;;;;;;;21.26;68.62;100384.28;130151;1271;109150;-77
2022/06/04 11:38:55;;;;;;;15.50;14.00;;;;;;;21.33;68.01;100385.10;130089;1270;108637;-77
2022/06/04 11:42:07;;;;;;;14.70;13.30;;;;;;;21.39;67.83;100379.27;130119;1270;108619;-78
2022/06/04 11:45:30;;;;;;;14.10;12.80;;;;;;;21.44;67.69;100379.85;129940;1271;108813;-77
2022/06/04 11:48:57;;;;;;;11.50;10.50;;;;;;;21.63;67.68;100375.02;129974;1269;108090;-78
2022/06/04 11:52:15;;;;;;;12.20;11.00;;;;;;;21.94;67.07;100368.61;129942;1271;108906;-79
2022/06/04 11:55:29;;;;;;;10.80;9.80;;;;;;;22.09;66.61;100367.66;129971;1271;109041;-75
2022/06/04 11:58:51;;;;;;;10.20;9.20;;;;;;;22.34;66.16;100375.52;129897;1271;108814;-76
2022/06/04 12:02:00;;;;;;;10.00;9.00;;;;;;;22.50;64.66;100372.98;129997;1271;108860;-77
2022/06/04 12:05:19;;;;;;;10.40;9.40;;;;;;;22.54;63.87;100375.10;129964;1271;108782;-76
2022/06/04 12:08:28;;;;;;;10.80;9.80;;;;;;;22.48;63.18;100374.08;129979;1271;108811;-77
2022/06/04 12:11:44;;;;;;;10.20;9.30;;;;;;;22.61;64.43;100370.35;130077;1270;108714;-76
2022/06/04 12:14:56;;;;;;;9.70;8.80;;;;;;;22.73;62.14;100368.40;129956;1270;108956;-76
2022/06/04 12:18:19;;;;;;;11.30;10.20;;;;;;;22.67;62.59;100371.16;129965;1271;107818;-70
2022/06/04 12:25:18;;;;;;;9.70;8.80;;;;;;;22.44;62.30;100371.41;129624;1271;107964;-74
2022/06/04 12:28:28;;;;;;;8.00;7.30;;;;;;;22.30;62.09;100368.07;129990;1270;108859;-71
2022/06/04 12:31:36;;;;;;;8.00;7.40;;;;;;;22.31;62.52;100366.20;130005;1271;108782;-75
2022/06/04 12:34:43;;;;;;;7.00;6.40;;;;;;;22.38;62.46;100368.44;129971;1270;108424;-75
2022/06/04 12:37:54;;;;;;;7.80;7.00;;;;;;;22.30;60.41;100366.45;129954;1270;108724;-74
2022/06/04 12:41:13;;;;;;;9.20;8.20;;;;;;;22.39;61.69;100367.39;130021;1270;108851;-73
2022/06/04 12:44:22;;;;;;;9.20;8.40;;;;;;;22.38;61.69;100362.75;129972;1271;108837;-71
2022/06/04 12:47:30;;;;;;;6.70;6.00;;;;;;;22.42;61.53;100353.98;129980;1271;108133;-72
2022/06/04 12:50:40;;;;;;;7.00;6.00;;;;;;;22.41;59.17;100351.04;129964;1270;108801;-71
2022/06/04 12:53:55;;;;;;;6.80;6.20;;;;;;;22.32;59.29;100351.27;129965;1270;108819;-71
2022/06/04 12:57:05;;;;;;;9.10;6.00;;;;;;;22.30;59.15;100345.49;129979;1270;108736;-72
2022/06/04 13:00:33;;;;;;;5.60;5.10;;;;;;;22.33;59.08;100338.63;129711;1271;342626;-72
2022/06/04 13:03:41;;;;;;;5.90;5.40;;;;;;;22.35;59.41;100337.27;129963;1271;110638;-72
2022/06/04 13:06:49;;;;;;;5.50;5.00;;;;;;;22.33;57.37;100331.90;129996;1270;108854;-72
2022/06/04 13:10:02;;;;;;;5.50;4.50;;;;;;;22.35;57.55;100326.99;130013;1271;109002;-71
2022/06/04 13:13:20;;;;;;;4.70;4.30;;;;;;;22.38;56.52;100321.20;129934;1270;108677;-72
2022/06/04 13:16:28;;;;;;;4.20;3.90;;;;;;;22.43;55.93;100323.95;129923;1271;108759;-72
2022/06/04 13:20:02;;;;;;;4.60;4.20;;;;;;;22.51;55.91;100323.80;130152;1270;108668;-71
2022/06/04 13:23:20;;;;;;;4.00;3.60;;;;;;;22.59;53.73;100323.85;129913;1271;108902;-73
2022/06/04 13:26:37;;;;;;;4.00;3.60;;;;;;;22.62;54.43;100323.23;129926;1271;107656;-73
2022/06/04 13:29:42;;;;;;;4.30;3.50;;;;;;;22.69;53.32;100328.36;129871;1271;108728;-73
2022/06/04 13:32:48;;;;;;;4.90;3.50;;;;;;;22.70;53.07;100322.28;129955;1271;108745;-73
2022/06/04 13:35:56;;;;;;;6.30;3.90;;;;;;;22.75;53.74;100319.64;130152;1270;108749;-73
2022/06/04 13:39:02;;;;;;;3.80;3.50;;;;;;;22.78;52.42;100317.69;130175;1271;108702;-73
2022/06/04 13:42:18;;;;;;;4.20;3.80;;;;;;;22.83;54.19;100312.71;130202;1271;108797;-73
2022/06/04 13:45:30;;;;;;;3.50;3.20;;;;;;;22.89;52.49;100315.27;130269;1271;108785;-73
2022/06/04 13:48:36;;;;;;;3.70;3.20;;;;;;;22.84;50.21;100314.20;130222;1269;108121;-73
2022/06/04 13:51:45;;;;;;;3.20;2.90;;;;;;;22.87;49.88;100313.86;130043;1271;108800;-73
2022/06/04 13:54:56;;;;;;;3.10;2.80;;;;;;;22.91;49.12;100307.69;130188;1271;108802;-73
2022/06/04 13:58:06;;;;;;;3.20;2.80;;;;;;;22.96;47.25;100307.28;129986;1271;109540;-73
2022/06/04 14:01:21;;;;;;;3.60;3.00;;;;;;;23.00;48.29;100309.35;130111;1271;108740;-73
2022/06/04 14:07:51;;;;;;;2.90;2.70;;;;;;;23.05;48.19;100311.94;130153;1270;108741;-73
2022/06/04 14:11:23;;;;;;;3.20;2.90;;;;;;;23.06;47.97;100312.30;130147;1271;108671;-73
2022/06/04 14:14:45;;;;;;;3.20;2.90;;;;;;;23.07;46.03;100310.80;130087;1270;108677;-73
2022/06/04 14:18:00;;;;;;;;;;;;;;;23.07;47.42;100315.04;130182;1271;108882;-73
2022/06/04 14:21:23;;;;;;;4.20;3.30;;;;;;;23.11;46.68;100318.16;130133;1270;108707;-73
2022/06/04 14:24:45;;;;;;;3.30;3.10;;;;;;;23.17;48.28;100316.69;130144;1271;108743;-73
2022/06/04 14:28:00;;;;;;;3.80;3.40;;;;;;;23.24;48.67;100310.66;130182;1271;108850;-73
2022/06/04 14:31:13;;;;;;;5.80;4.30;;;;;;;23.34;47.46;100314.21;130125;1270;108743;-73
2022/06/04 14:34:19;;;;;;;4.80;4.40;;;;;;;23.36;45.62;100318.08;130204;1271;107413;-73
2022/06/04 14:37:27;;;;;;;5.70;4.80;;;;;;;23.39;46.51;100316.81;130137;1270;108108;-73
2022/06/04 14:40:41;;;;;;;4.40;4.10;;;;;;;23.47;46.61;100314.70;130176;1271;108857;-73